sensor_id;sensor_type;location;lat;lon;timestamp;P1;durP1;ratioP1;P2;durP2;ratioP2
22026;SDS011;11177;50.966;10.070;2022-07-22T00:00:15;4.95;;;3.50;;
22026;SDS011;11177;50.966;10.070;2022-07-22T00:02:56;3.97;;;3.63;;
22026;SDS011;11177;50.966;10.070;2022-07-22T00:05:23;4.63;;;3.70;;
22026;SDS011;11177;50.966;10.070;2022-07-22T00:07:49;4.10;;;3.70;;
22026;SDS011;11177;50.966;10.070;2022-07-22T00:10:16;4.03;;;3.35;;
22026;SDS011;11177;50.966;10.070;2022-07-22T00:12:43;5.95;;;3.60;;
22026;SDS011;11177;50.966;10.070;2022-07-22T00:15:10;3.47;;;3.17;;
22026;SDS011;11177;50.966;10.070;2022-07-22T00:17:37;4.10;;;3.70;;
22026;SDS011;11177;50.966;10.070;2022-07-22T00:20:05;3.88;;;3.38;;
22026;SDS011;11177;50.966;10.070;2022-07-22T00:22:33;3.70;;;3.40;;
22026;SDS011;11177;50.966;10.070;2022-07-22T00:25:00;3.80;;;3.50;;
22026;SDS011;11177;50.966;10.070;2022-07-22T00:27:26;3.97;;;3.58;;
22026;SDS011;11177;50.966;10.070;2022-07-22T00:29:53;3.95;;;3.28;;
22026;SDS011;11177;50.966;10.070;2022-07-22T00:32:20;3.88;;;3.40;;
22026;SDS011;11177;50.966;10.070;2022-07-22T00:34:47;3.33;;;3.00;;
22026;SDS011;11177;50.966;10.070;2022-07-22T00:37:14;5.43;;;3.33;;
22026;SDS011;11177;50.966;10.070;2022-07-22T00:39:41;4.20;;;3.80;;
22026;SDS011;11177;50.966;10.070;2022-07-22T00:42:08;3.90;;;3.50;;
22026;SDS011;11177;50.966;10.070;2022-07-22T00:44:35;3.70;;;3.33;;
22026;SDS011;11177;50.966;10.070;2022-07-22T00:47:05;3.80;;;3.15;;
22026;SDS011;11177;50.966;10.070;2022-07-22T00:49:32;3.45;;;3.03;;
22026;SDS011;11177;50.966;10.070;2022-07-22T00:51:59;3.60;;;3.30;;
22026;SDS011;11177;50.966;10.070;2022-07-22T00:54:27;3.80;;;3.50;;
22026;SDS011;11177;50.966;10.070;2022-07-22T00:56:54;4.35;;;3.53;;
22026;SDS011;11177;50.966;10.070;2022-07-22T00:59:22;3.75;;;3.45;;
22026;SDS011;11177;50.966;10.070;2022-07-22T01:01:49;4.13;;;3.63;;
22026;SDS011;11177;50.966;10.070;2022-07-22T01:04:16;4.22;;;3.38;;
22026;SDS011;11177;50.966;10.070;2022-07-22T01:06:43;3.60;;;3.30;;
22026;SDS011;11177;50.966;10.070;2022-07-22T01:09:11;4.43;;;3.72;;
22026;SDS011;11177;50.966;10.070;2022-07-22T01:11:40;3.63;;;3.33;;
22026;SDS011;11177;50.966;10.070;2022-07-22T01:14:07;4.00;;;3.60;;
22026;SDS011;11177;50.966;10.070;2022-07-22T01:16:34;4.00;;;3.60;;
22026;SDS011;11177;50.966;10.070;2022-07-22T01:19:03;4.13;;;3.67;;
22026;SDS011;11177;50.966;10.070;2022-07-22T01:21:30;4.00;;;3.53;;
22026;SDS011;11177;50.966;10.070;2022-07-22T01:23:58;4.75;;;3.90;;
22026;SDS011;11177;50.966;10.070;2022-07-22T01:26:25;4.25;;;3.47;;
22026;SDS011;11177;50.966;10.070;2022-07-22T01:28:52;3.50;;;3.20;;
22026;SDS011;11177;50.966;10.070;2022-07-22T01:31:19;4.05;;;3.65;;
22026;SDS011;11177;50.966;10.070;2022-07-22T01:33:46;4.90;;;3.80;;
22026;SDS011;11177;50.966;10.070;2022-07-22T01:36:14;3.72;;;3.40;;
22026;SDS011;11177;50.966;10.070;2022-07-22T01:38:41;4.38;;;3.92;;
22026;SDS011;11177;50.966;10.070;2022-07-22T01:41:08;3.88;;;3.50;;
22026;SDS011;11177;50.966;10.070;2022-07-22T01:43:36;4.45;;;4.03;;
22026;SDS011;11177;50.966;10.070;2022-07-22T01:46:03;4.80;;;4.30;;
22026;SDS011;11177;50.966;10.070;2022-07-22T01:48:30;5.22;;;4.50;;
22026;SDS011;11177;50.966;10.070;2022-07-22T01:50:57;6.65;;;4.70;;
22026;SDS011;11177;50.966;10.070;2022-07-22T01:53:24;6.75;;;4.72;;
22026;SDS011;11177;50.966;10.070;2022-07-22T01:55:51;5.93;;;4.78;;
22026;SDS011;11177;50.966;10.070;2022-07-22T01:58:18;6.15;;;4.68;;
22026;SDS011;11177;50.966;10.070;2022-07-22T02:00:45;6.72;;;4.80;;
22026;SDS011;11177;50.966;10.070;2022-07-22T02:03:12;6.68;;;4.75;;
22026;SDS011;11177;50.966;10.070;2022-07-22T02:05:38;6.60;;;4.60;;
22026;SDS011;11177;50.966;10.070;2022-07-22T02:08:07;4.95;;;4.38;;
22026;SDS011;11177;50.966;10.070;2022-07-22T02:10:35;5.97;;;4.45;;
22026;SDS011;11177;50.966;10.070;2022-07-22T02:13:02;5.50;;;4.78;;
22026;SDS011;11177;50.966;10.070;2022-07-22T02:15:29;5.32;;;4.28;;
22026;SDS011;11177;50.966;10.070;2022-07-22T02:17:56;4.30;;;3.85;;
22026;SDS011;11177;50.966;10.070;2022-07-22T02:20:23;6.00;;;3.90;;
22026;SDS011;11177;50.966;10.070;2022-07-22T02:22:50;5.20;;;4.15;;
22026;SDS011;11177;50.966;10.070;2022-07-22T02:25:17;4.15;;;3.67;;
22026;SDS011;11177;50.966;10.070;2022-07-22T02:27:44;6.22;;;3.85;;
22026;SDS011;11177;50.966;10.070;2022-07-22T02:30:11;4.03;;;3.40;;
22026;SDS011;11177;50.966;10.070;2022-07-22T02:32:38;4.10;;;3.53;;
22026;SDS011;11177;50.966;10.070;2022-07-22T02:35:05;4.00;;;3.60;;
22026;SDS011;11177;50.966;10.070;2022-07-22T02:37:32;4.07;;;3.78;;
22026;SDS011;11177;50.966;10.070;2022-07-22T02:40:00;3.75;;;3.38;;
22026;SDS011;11177;50.966;10.070;2022-07-22T02:42:27;4.47;;;3.60;;
22026;SDS011;11177;50.966;10.070;2022-07-22T02:44:54;3.70;;;3.40;;
22026;SDS011;11177;50.966;10.070;2022-07-22T02:47:21;4.18;;;3.25;;
22026;SDS011;11177;50.966;10.070;2022-07-22T02:49:47;4.07;;;3.58;;
22026;SDS011;11177;50.966;10.070;2022-07-22T02:52:15;5.70;;;3.83;;
22026;SDS011;11177;50.966;10.070;2022-07-22T02:54:41;4.60;;;3.60;;
22026;SDS011;11177;50.966;10.070;2022-07-22T02:57:08;3.40;;;3.10;;
22026;SDS011;11177;50.966;10.070;2022-07-22T02:59:35;3.75;;;3.42;;
22026;SDS011;11177;50.966;10.070;2022-07-22T03:02:03;3.75;;;3.22;;
22026;SDS011;11177;50.966;10.070;2022-07-22T03:04:29;3.83;;;3.45;;
22026;SDS011;11177;50.966;10.070;2022-07-22T03:06:56;3.47;;;3.17;;
22026;SDS011;11177;50.966;10.070;2022-07-22T03:09:23;3.78;;;2.90;;
22026;SDS011;11177;50.966;10.070;2022-07-22T03:11:50;4.43;;;3.28;;
22026;SDS011;11177;50.966;10.070;2022-07-22T03:14:17;3.63;;;3.30;;
22026;SDS011;11177;50.966;10.070;2022-07-22T03:16:44;3.50;;;3.20;;
22026;SDS011;11177;50.966;10.070;2022-07-22T03:19:11;3.13;;;2.83;;
22026;SDS011;11177;50.966;10.070;2022-07-22T03:21:38;3.92;;;3.53;;
22026;SDS011;11177;50.966;10.070;2022-07-22T03:24:05;4.53;;;3.22;;
22026;SDS011;11177;50.966;10.070;2022-07-22T03:26:32;3.65;;;3.35;;
22026;SDS011;11177;50.966;10.070;2022-07-22T03:28:59;4.88;;;3.22;;
22026;SDS011;11177;50.966;10.070;2022-07-22T03:31:26;2.95;;;2.75;;
22026;SDS011;11177;50.966;10.070;2022-07-22T03:33:54;5.25;;;3.55;;
22026;SDS011;11177;50.966;10.070;2022-07-22T03:36:24;4.13;;;3.33;;
22026;SDS011;11177;50.966;10.070;2022-07-22T03:38:51;3.78;;;3.42;;
22026;SDS011;11177;50.966;10.070;2022-07-22T03:41:18;3.78;;;3.20;;
22026;SDS011;11177;50.966;10.070;2022-07-22T03:43:44;7.28;;;3.20;;
22026;SDS011;11177;50.966;10.070;2022-07-22T03:46:11;4.05;;;3.20;;
22026;SDS011;11177;50.966;10.070;2022-07-22T03:48:38;3.47;;;3.17;;
22026;SDS011;11177;50.966;10.070;2022-07-22T03:51:05;4.45;;;3.13;;
22026;SDS011;11177;50.966;10.070;2022-07-22T03:53:32;4.38;;;3.20;;
22026;SDS011;11177;50.966;10.070;2022-07-22T03:55:59;3.15;;;2.70;;
22026;SDS011;11177;50.966;10.070;2022-07-22T03:58:26;3.33;;;3.03;;
22026;SDS011;11177;50.966;10.070;2022-07-22T04:00:54;4.70;;;3.17;;
22026;SDS011;11177;50.966;10.070;2022-07-22T04:03:21;4.05;;;2.95;;
22026;SDS011;11177;50.966;10.070;2022-07-22T04:05:48;4.25;;;2.90;;
22026;SDS011;11177;50.966;10.070;2022-07-22T04:08:16;6.28;;;3.55;;
22026;SDS011;11177;50.966;10.070;2022-07-22T04:10:44;5.28;;;3.75;;
22026;SDS011;11177;50.966;10.070;2022-07-22T04:13:11;4.70;;;3.67;;
22026;SDS011;11177;50.966;10.070;2022-07-22T04:15:38;3.95;;;3.38;;
22026;SDS011;11177;50.966;10.070;2022-07-22T04:18:04;4.20;;;3.45;;
22026;SDS011;11177;50.966;10.070;2022-07-22T04:20:31;4.07;;;2.90;;
22026;SDS011;11177;50.966;10.070;2022-07-22T04:22:58;3.50;;;2.78;;
22026;SDS011;11177;50.966;10.070;2022-07-22T04:25:25;3.08;;;2.78;;
22026;SDS011;11177;50.966;10.070;2022-07-22T04:27:51;3.08;;;2.83;;
22026;SDS011;11177;50.966;10.070;2022-07-22T04:30:19;3.00;;;2.80;;
22026;SDS011;11177;50.966;10.070;2022-07-22T04:32:45;2.65;;;2.45;;
22026;SDS011;11177;50.966;10.070;2022-07-22T04:35:12;5.43;;;2.40;;
22026;SDS011;11177;50.966;10.070;2022-07-22T04:37:39;4.15;;;3.08;;
22026;SDS011;11177;50.966;10.070;2022-07-22T04:40:06;3.42;;;2.80;;
22026;SDS011;11177;50.966;10.070;2022-07-22T04:42:34;2.70;;;2.50;;
22026;SDS011;11177;50.966;10.070;2022-07-22T04:45:01;3.60;;;2.58;;
22026;SDS011;11177;50.966;10.070;2022-07-22T04:47:28;2.78;;;2.13;;
22026;SDS011;11177;50.966;10.070;2022-07-22T04:49:54;2.60;;;2.40;;
22026;SDS011;11177;50.966;10.070;2022-07-22T04:52:21;2.63;;;2.42;;
22026;SDS011;11177;50.966;10.070;2022-07-22T04:54:48;3.78;;;2.40;;
22026;SDS011;11177;50.966;10.070;2022-07-22T04:57:15;2.65;;;2.42;;
22026;SDS011;11177;50.966;10.070;2022-07-22T04:59:42;4.25;;;2.92;;
22026;SDS011;11177;50.966;10.070;2022-07-22T05:02:09;3.25;;;2.53;;
22026;SDS011;11177;50.966;10.070;2022-07-22T05:04:36;2.28;;;1.90;;
22026;SDS011;11177;50.966;10.070;2022-07-22T05:07:03;2.55;;;2.03;;
22026;SDS011;11177;50.966;10.070;2022-07-22T05:09:30;2.42;;;1.83;;
22026;SDS011;11177;50.966;10.070;2022-07-22T05:11:57;2.55;;;1.55;;
22026;SDS011;11177;50.966;10.070;2022-07-22T05:14:23;4.05;;;1.60;;
22026;SDS011;11177;50.966;10.070;2022-07-22T05:16:50;2.72;;;1.75;;
22026;SDS011;11177;50.966;10.070;2022-07-22T05:19:17;1.80;;;1.70;;
22026;SDS011;11177;50.966;10.070;2022-07-22T05:21:44;1.90;;;1.70;;
22026;SDS011;11177;50.966;10.070;2022-07-22T05:24:11;1.77;;;1.67;;
22026;SDS011;11177;50.966;10.070;2022-07-22T05:26:38;1.45;;;1.35;;
22026;SDS011;11177;50.966;10.070;2022-07-22T05:29:04;2.92;;;1.55;;
22026;SDS011;11177;50.966;10.070;2022-07-22T05:31:31;1.60;;;1.50;;
22026;SDS011;11177;50.966;10.070;2022-07-22T05:33:58;2.05;;;1.60;;
22026;SDS011;11177;50.966;10.070;2022-07-22T05:36:26;1.73;;;1.48;;
22026;SDS011;11177;50.966;10.070;2022-07-22T05:38:52;1.52;;;1.42;;
22026;SDS011;11177;50.966;10.070;2022-07-22T05:41:20;3.88;;;1.50;;
22026;SDS011;11177;50.966;10.070;2022-07-22T05:43:47;4.68;;;1.95;;
22026;SDS011;11177;50.966;10.070;2022-07-22T05:46:14;1.23;;;1.20;;
22026;SDS011;11177;50.966;10.070;2022-07-22T05:48:41;1.30;;;1.20;;
22026;SDS011;11177;50.966;10.070;2022-07-22T05:51:11;1.77;;;1.67;;
22026;SDS011;11177;50.966;10.070;2022-07-22T05:53:39;1.60;;;1.30;;
22026;SDS011;11177;50.966;10.070;2022-07-22T05:56:07;2.85;;;1.27;;
22026;SDS011;11177;50.966;10.070;2022-07-22T05:58:35;1.15;;;1.10;;
22026;SDS011;11177;50.966;10.070;2022-07-22T06:01:01;1.17;;;1.10;;
22026;SDS011;11177;50.966;10.070;2022-07-22T06:03:28;1.55;;;1.30;;
22026;SDS011;11177;50.966;10.070;2022-07-22T06:05:55;4.40;;;1.65;;
22026;SDS011;11177;50.966;10.070;2022-07-22T06:08:22;3.78;;;1.45;;
22026;SDS011;11177;50.966;10.070;2022-07-22T06:10:49;1.65;;;1.23;;
22026;SDS011;11177;50.966;10.070;2022-07-22T06:13:16;2.60;;;1.20;;
22026;SDS011;11177;50.966;10.070;2022-07-22T06:15:42;1.40;;;1.23;;
22026;SDS011;11177;50.966;10.070;2022-07-22T06:18:09;2.75;;;1.30;;
22026;SDS011;11177;50.966;10.070;2022-07-22T06:20:36;2.25;;;1.25;;
22026;SDS011;11177;50.966;10.070;2022-07-22T06:23:03;6.10;;;1.33;;
22026;SDS011;11177;50.966;10.070;2022-07-22T06:25:30;1.10;;;1.10;;
22026;SDS011;11177;50.966;10.070;2022-07-22T06:28:08;1.30;;;1.20;;
22026;SDS011;11177;50.966;10.070;2022-07-22T06:30:35;1.58;;;1.40;;
22026;SDS011;11177;50.966;10.070;2022-07-22T06:33:02;1.98;;;1.10;;
22026;SDS011;11177;50.966;10.070;2022-07-22T06:35:29;1.30;;;1.20;;
22026;SDS011;11177;50.966;10.070;2022-07-22T06:37:56;1.42;;;1.33;;
22026;SDS011;11177;50.966;10.070;2022-07-22T06:40:33;2.78;;;1.50;;
22026;SDS011;11177;50.966;10.070;2022-07-22T06:43:00;1.35;;;1.27;;
22026;SDS011;11177;50.966;10.070;2022-07-22T06:45:28;2.35;;;1.50;;
22026;SDS011;11177;50.966;10.070;2022-07-22T06:47:55;1.55;;;1.33;;
22026;SDS011;11177;50.966;10.070;2022-07-22T06:50:22;1.40;;;1.30;;
22026;SDS011;11177;50.966;10.070;2022-07-22T06:52:49;4.15;;;1.73;;
22026;SDS011;11177;50.966;10.070;2022-07-22T06:55:16;5.43;;;1.60;;
22026;SDS011;11177;50.966;10.070;2022-07-22T06:57:43;1.60;;;1.50;;
22026;SDS011;11177;50.966;10.070;2022-07-22T07:00:10;2.10;;;1.20;;
22026;SDS011;11177;50.966;10.070;2022-07-22T07:02:37;2.15;;;1.58;;
22026;SDS011;11177;50.966;10.070;2022-07-22T07:05:04;1.50;;;1.40;;
22026;SDS011;11177;50.966;10.070;2022-07-22T07:07:31;1.65;;;1.55;;
22026;SDS011;11177;50.966;10.070;2022-07-22T07:10:02;1.58;;;1.48;;
22026;SDS011;11177;50.966;10.070;2022-07-22T07:12:34;1.35;;;1.20;;
22026;SDS011;11177;50.966;10.070;2022-07-22T07:15:03;1.75;;;1.65;;
22026;SDS011;11177;50.966;10.070;2022-07-22T07:17:50;1.50;;;1.40;;
22026;SDS011;11177;50.966;10.070;2022-07-22T07:20:18;2.13;;;1.63;;
22026;SDS011;11177;50.966;10.070;2022-07-22T07:22:45;6.38;;;1.70;;
22026;SDS011;11177;50.966;10.070;2022-07-22T07:25:12;1.90;;;1.77;;
22026;SDS011;11177;50.966;10.070;2022-07-22T07:27:49;4.20;;;1.73;;
22026;SDS011;11177;50.966;10.070;2022-07-22T07:30:19;4.20;;;2.00;;
22026;SDS011;11177;50.966;10.070;2022-07-22T07:32:46;4.10;;;1.70;;
22026;SDS011;11177;50.966;10.070;2022-07-22T07:35:13;2.20;;;1.50;;
22026;SDS011;11177;50.966;10.070;2022-07-22T07:37:40;1.80;;;1.70;;
22026;SDS011;11177;50.966;10.070;2022-07-22T07:40:07;4.70;;;1.50;;
22026;SDS011;11177;50.966;10.070;2022-07-22T07:42:35;2.35;;;1.67;;
22026;SDS011;11177;50.966;10.070;2022-07-22T07:45:13;1.92;;;1.60;;
22026;SDS011;11177;50.966;10.070;2022-07-22T07:47:40;7.22;;;1.63;;
22026;SDS011;11177;50.966;10.070;2022-07-22T07:52:44;4.68;;;2.00;;
22026;SDS011;11177;50.966;10.070;2022-07-22T07:55:18;1.85;;;1.30;;
22026;SDS011;11177;50.966;10.070;2022-07-22T07:57:46;1.70;;;1.60;;
22026;SDS011;11177;50.966;10.070;2022-07-22T08:00:18;1.60;;;1.50;;
22026;SDS011;11177;50.966;10.070;2022-07-22T08:02:47;1.42;;;1.33;;
22026;SDS011;11177;50.966;10.070;2022-07-22T08:05:14;1.40;;;1.30;;
22026;SDS011;11177;50.966;10.070;2022-07-22T08:07:42;1.60;;;1.50;;
22026;SDS011;11177;50.966;10.070;2022-07-22T08:10:09;2.15;;;1.50;;
22026;SDS011;11177;50.966;10.070;2022-07-22T08:12:56;5.38;;;1.52;;
22026;SDS011;11177;50.966;10.070;2022-07-22T08:15:25;1.60;;;1.50;;
22026;SDS011;11177;50.966;10.070;2022-07-22T08:17:53;4.18;;;1.45;;
22026;SDS011;11177;50.966;10.070;2022-07-22T08:20:21;1.50;;;1.40;;
22026;SDS011;11177;50.966;10.070;2022-07-22T08:22:48;2.22;;;1.70;;
22026;SDS011;11177;50.966;10.070;2022-07-22T08:25:15;5.03;;;1.85;;
22026;SDS011;11177;50.966;10.070;2022-07-22T08:27:42;5.55;;;1.42;;
22026;SDS011;11177;50.966;10.070;2022-07-22T08:30:12;1.50;;;1.40;;
22026;SDS011;11177;50.966;10.070;2022-07-22T08:32:39;1.50;;;1.40;;
22026;SDS011;11177;50.966;10.070;2022-07-22T08:35:07;1.65;;;1.55;;
22026;SDS011;11177;50.966;10.070;2022-07-22T08:37:34;1.48;;;1.38;;
22026;SDS011;11177;50.966;10.070;2022-07-22T08:40:01;1.50;;;1.40;;
22026;SDS011;11177;50.966;10.070;2022-07-22T08:42:28;2.25;;;1.70;;
22026;SDS011;11177;50.966;10.070;2022-07-22T08:44:56;1.65;;;1.55;;
22026;SDS011;11177;50.966;10.070;2022-07-22T08:47:30;2.38;;;1.63;;
22026;SDS011;11177;50.966;10.070;2022-07-22T08:50:09;5.90;;;1.80;;
22026;SDS011;11177;50.966;10.070;2022-07-22T08:52:36;2.30;;;1.60;;
22026;SDS011;11177;50.966;10.070;2022-07-22T08:55:06;1.90;;;1.80;;
22026;SDS011;11177;50.966;10.070;2022-07-22T08:57:34;1.92;;;1.83;;
22026;SDS011;11177;50.966;10.070;2022-07-22T09:00:11;1.63;;;1.40;;
22026;SDS011;11177;50.966;10.070;2022-07-22T09:02:40;2.28;;;1.83;;
22026;SDS011;11177;50.966;10.070;2022-07-22T09:05:08;3.53;;;1.50;;
22026;SDS011;11177;50.966;10.070;2022-07-22T09:07:57;1.70;;;1.60;;
22026;SDS011;11177;50.966;10.070;2022-07-22T09:10:30;1.75;;;1.65;;
22026;SDS011;11177;50.966;10.070;2022-07-22T09:12:59;1.70;;;1.60;;
22026;SDS011;11177;50.966;10.070;2022-07-22T09:15:29;1.80;;;1.70;;
22026;SDS011;11177;50.966;10.070;2022-07-22T09:17:57;2.67;;;1.60;;
22026;SDS011;11177;50.966;10.070;2022-07-22T09:20:30;1.90;;;1.80;;
22026;SDS011;11177;50.966;10.070;2022-07-22T09:22:57;1.70;;;1.60;;
22026;SDS011;11177;50.966;10.070;2022-07-22T09:25:31;1.70;;;1.60;;
22026;SDS011;11177;50.966;10.070;2022-07-22T09:28:09;2.08;;;1.70;;
22026;SDS011;11177;50.966;10.070;2022-07-22T09:30:39;1.60;;;1.50;;
22026;SDS011;11177;50.966;10.070;2022-07-22T09:33:09;1.60;;;1.50;;
22026;SDS011;11177;50.966;10.070;2022-07-22T09:35:36;6.45;;;1.65;;
22026;SDS011;11177;50.966;10.070;2022-07-22T09:38:04;2.17;;;1.80;;
22026;SDS011;11177;50.966;10.070;2022-07-22T09:40:36;1.90;;;1.80;;
22026;SDS011;11177;50.966;10.070;2022-07-22T09:43:08;2.08;;;1.90;;
22026;SDS011;11177;50.966;10.070;2022-07-22T09:45:53;2.38;;;1.80;;
22026;SDS011;11177;50.966;10.070;2022-07-22T09:48:25;2.10;;;1.90;;
22026;SDS011;11177;50.966;10.070;2022-07-22T09:50:53;1.75;;;1.65;;
22026;SDS011;11177;50.966;10.070;2022-07-22T09:53:23;2.83;;;1.77;;
22026;SDS011;11177;50.966;10.070;2022-07-22T09:55:57;1.88;;;1.77;;
22026;SDS011;11177;50.966;10.070;2022-07-22T09:58:28;7.45;;;2.00;;
22026;SDS011;11177;50.966;10.070;2022-07-22T10:00:57;1.92;;;1.70;;
22026;SDS011;11177;50.966;10.070;2022-07-22T10:05:54;2.63;;;1.77;;
22026;SDS011;11177;50.966;10.070;2022-07-22T10:08:22;2.08;;;1.98;;
22026;SDS011;11177;50.966;10.070;2022-07-22T10:10:51;2.45;;;1.98;;
22026;SDS011;11177;50.966;10.070;2022-07-22T10:13:18;1.90;;;1.80;;
22026;SDS011;11177;50.966;10.070;2022-07-22T10:15:46;2.25;;;2.10;;
22026;SDS011;11177;50.966;10.070;2022-07-22T10:18:18;2.50;;;1.73;;
22026;SDS011;11177;50.966;10.070;2022-07-22T10:20:46;2.05;;;1.95;;
22026;SDS011;11177;50.966;10.070;2022-07-22T10:23:14;3.63;;;2.20;;
22026;SDS011;11177;50.966;10.070;2022-07-22T10:26:15;3.67;;;1.90;;
22026;SDS011;11177;50.966;10.070;2022-07-22T10:28:35;1.95;;;1.73;;
22026;SDS011;11177;50.966;10.070;2022-07-22T10:31:18;2.00;;;1.90;;
22026;SDS011;11177;50.966;10.070;2022-07-22T10:33:51;2.13;;;1.92;;
22026;SDS011;11177;50.966;10.070;2022-07-22T10:36:30;1.90;;;1.80;;
22026;SDS011;11177;50.966;10.070;2022-07-22T10:39:03;2.15;;;2.00;;
22026;SDS011;11177;50.966;10.070;2022-07-22T10:41:40;2.53;;;2.33;;
22026;SDS011;11177;50.966;10.070;2022-07-22T10:56:32;2.00;;;1.80;;
22026;SDS011;11177;50.966;10.070;2022-07-22T10:59:13;2.20;;;2.00;;
22026;SDS011;11177;50.966;10.070;2022-07-22T11:01:42;1.95;;;1.83;;
22026;SDS011;11177;50.966;10.070;2022-07-22T11:06:49;2.20;;;2.00;;
22026;SDS011;11177;50.966;10.070;2022-07-22T11:09:19;1.77;;;1.67;;
22026;SDS011;11177;50.966;10.070;2022-07-22T11:11:50;1.95;;;1.80;;
22026;SDS011;11177;50.966;10.070;2022-07-22T11:14:35;1.90;;;1.77;;
22026;SDS011;11177;50.966;10.070;2022-07-22T11:17:11;1.90;;;1.80;;
22026;SDS011;11177;50.966;10.070;2022-07-22T11:19:52;2.20;;;2.00;;
22026;SDS011;11177;50.966;10.070;2022-07-22T11:22:19;1.90;;;1.80;;
22026;SDS011;11177;50.966;10.070;2022-07-22T11:24:48;2.05;;;1.88;;
22026;SDS011;11177;50.966;10.070;2022-07-22T11:27:17;2.10;;;1.90;;
22026;SDS011;11177;50.966;10.070;2022-07-22T11:29:50;1.80;;;1.70;;
22026;SDS011;11177;50.966;10.070;2022-07-22T11:32:19;3.10;;;2.00;;
22026;SDS011;11177;50.966;10.070;2022-07-22T11:34:54;2.33;;;1.80;;
22026;SDS011;11177;50.966;10.070;2022-07-22T11:37:22;1.90;;;1.80;;
22026;SDS011;11177;50.966;10.070;2022-07-22T11:39:50;2.50;;;1.90;;
22026;SDS011;11177;50.966;10.070;2022-07-22T11:42:28;3.53;;;1.85;;
22026;SDS011;11177;50.966;10.070;2022-07-22T11:44:55;1.80;;;1.70;;
22026;SDS011;11177;50.966;10.070;2022-07-22T11:47:22;2.05;;;1.67;;
22026;SDS011;11177;50.966;10.070;2022-07-22T11:49:49;1.90;;;1.80;;
22026;SDS011;11177;50.966;10.070;2022-07-22T11:52:16;2.65;;;1.90;;
22026;SDS011;11177;50.966;10.070;2022-07-22T11:54:44;2.53;;;1.88;;
22026;SDS011;11177;50.966;10.070;2022-07-22T11:57:12;4.32;;;1.88;;
22026;SDS011;11177;50.966;10.070;2022-07-22T11:59:39;4.13;;;1.95;;
22026;SDS011;11177;50.966;10.070;2022-07-22T12:02:07;3.33;;;1.90;;
22026;SDS011;11177;50.966;10.070;2022-07-22T12:04:36;3.22;;;2.00;;
22026;SDS011;11177;50.966;10.070;2022-07-22T12:07:03;1.90;;;1.73;;
22026;SDS011;11177;50.966;10.070;2022-07-22T12:09:34;2.00;;;1.90;;
22026;SDS011;11177;50.966;10.070;2022-07-22T12:12:07;1.80;;;1.70;;
22026;SDS011;11177;50.966;10.070;2022-07-22T12:14:34;6.05;;;2.10;;
22026;SDS011;11177;50.966;10.070;2022-07-22T12:17:03;3.40;;;1.90;;
22026;SDS011;11177;50.966;10.070;2022-07-22T12:19:32;2.10;;;1.90;;
22026;SDS011;11177;50.966;10.070;2022-07-22T12:22:02;1.90;;;1.80;;
22026;SDS011;11177;50.966;10.070;2022-07-22T12:24:37;1.88;;;1.75;;
22026;SDS011;11177;50.966;10.070;2022-07-22T12:34:59;1.80;;;1.70;;
22026;SDS011;11177;50.966;10.070;2022-07-22T12:37:48;2.15;;;1.80;;
22026;SDS011;11177;50.966;10.070;2022-07-22T12:40:18;1.98;;;1.77;;
22026;SDS011;11177;50.966;10.070;2022-07-22T12:42:58;2.05;;;1.95;;
22026;SDS011;11177;50.966;10.070;2022-07-22T12:45:26;1.70;;;1.60;;
22026;SDS011;11177;50.966;10.070;2022-07-22T12:48:04;2.00;;;1.90;;
22026;SDS011;11177;50.966;10.070;2022-07-22T12:50:41;1.70;;;1.60;;
22026;SDS011;11177;50.966;10.070;2022-07-22T12:53:13;2.58;;;2.38;;
22026;SDS011;11177;50.966;10.070;2022-07-22T12:55:48;2.10;;;2.00;;
22026;SDS011;11177;50.966;10.070;2022-07-22T12:58:18;1.75;;;1.65;;
22026;SDS011;11177;50.966;10.070;2022-07-22T13:00:48;1.90;;;1.80;;
22026;SDS011;11177;50.966;10.070;2022-07-22T13:03:17;2.20;;;2.00;;
22026;SDS011;11177;50.966;10.070;2022-07-22T13:05:55;2.15;;;1.92;;
22026;SDS011;11177;50.966;10.070;2022-07-22T13:08:24;1.90;;;1.80;;
22026;SDS011;11177;50.966;10.070;2022-07-22T13:10:55;5.40;;;2.10;;
22026;SDS011;11177;50.966;10.070;2022-07-22T13:13:22;2.33;;;2.00;;
22026;SDS011;11177;50.966;10.070;2022-07-22T13:15:50;2.13;;;1.92;;
22026;SDS011;11177;50.966;10.070;2022-07-22T13:18:17;2.22;;;2.05;;
22026;SDS011;11177;50.966;10.070;2022-07-22T13:20:44;2.30;;;2.10;;
22026;SDS011;11177;50.966;10.070;2022-07-22T13:23:11;2.13;;;1.92;;
22026;SDS011;11177;50.966;10.070;2022-07-22T13:25:38;2.17;;;2.08;;
22026;SDS011;11177;50.966;10.070;2022-07-22T13:28:09;2.75;;;2.38;;
22026;SDS011;11177;50.966;10.070;2022-07-22T13:30:36;2.25;;;2.10;;
22026;SDS011;11177;50.966;10.070;2022-07-22T13:33:03;2.42;;;2.25;;
22026;SDS011;11177;50.966;10.070;2022-07-22T13:35:30;2.20;;;2.00;;
22026;SDS011;11177;50.966;10.070;2022-07-22T13:37:57;2.53;;;2.33;;
22026;SDS011;11177;50.966;10.070;2022-07-22T13:40:24;2.05;;;1.95;;
22026;SDS011;11177;50.966;10.070;2022-07-22T13:42:51;2.13;;;1.98;;
22026;SDS011;11177;50.966;10.070;2022-07-22T13:45:18;2.92;;;2.10;;
22026;SDS011;11177;50.966;10.070;2022-07-22T13:47:46;2.50;;;2.28;;
22026;SDS011;11177;50.966;10.070;2022-07-22T13:50:13;5.60;;;2.15;;
22026;SDS011;11177;50.966;10.070;2022-07-22T13:52:40;2.60;;;2.40;;
22026;SDS011;11177;50.966;10.070;2022-07-22T13:55:07;3.47;;;2.20;;
22026;SDS011;11177;50.966;10.070;2022-07-22T13:57:34;2.20;;;2.00;;
22026;SDS011;11177;50.966;10.070;2022-07-22T14:00:03;5.57;;;3.20;;
22026;SDS011;11177;50.966;10.070;2022-07-22T14:02:40;2.63;;;2.42;;
22026;SDS011;11177;50.966;10.070;2022-07-22T14:05:12;4.50;;;2.30;;
22026;SDS011;11177;50.966;10.070;2022-07-22T14:07:41;2.35;;;2.15;;
22026;SDS011;11177;50.966;10.070;2022-07-22T14:10:08;2.53;;;2.20;;
22026;SDS011;11177;50.966;10.070;2022-07-22T14:12:40;3.00;;;2.40;;
22026;SDS011;11177;50.966;10.070;2022-07-22T14:15:07;2.47;;;2.20;;
22026;SDS011;11177;50.966;10.070;2022-07-22T14:17:35;2.83;;;2.08;;
22026;SDS011;11177;50.966;10.070;2022-07-22T14:20:03;8.75;;;2.88;;
22026;SDS011;11177;50.966;10.070;2022-07-22T14:22:32;2.50;;;2.30;;
22026;SDS011;11177;50.966;10.070;2022-07-22T14:25:03;4.78;;;2.30;;
22026;SDS011;11177;50.966;10.070;2022-07-22T14:27:30;2.08;;;1.90;;
22026;SDS011;11177;50.966;10.070;2022-07-22T14:29:57;2.45;;;2.25;;
22026;SDS011;11177;50.966;10.070;2022-07-22T14:32:24;2.30;;;2.10;;
22026;SDS011;11177;50.966;10.070;2022-07-22T14:34:51;4.90;;;2.42;;
22026;SDS011;11177;50.966;10.070;2022-07-22T14:37:18;2.90;;;2.47;;
22026;SDS011;11177;50.966;10.070;2022-07-22T14:42:20;3.47;;;2.20;;
22026;SDS011;11177;50.966;10.070;2022-07-22T14:44:47;3.60;;;2.47;;
22026;SDS011;11177;50.966;10.070;2022-07-22T14:47:14;4.70;;;2.42;;
22026;SDS011;11177;50.966;10.070;2022-07-22T14:49:40;3.22;;;2.50;;
22026;SDS011;11177;50.966;10.070;2022-07-22T14:52:07;2.42;;;2.22;;
22026;SDS011;11177;50.966;10.070;2022-07-22T14:54:34;2.17;;;2.08;;
22026;SDS011;11177;50.966;10.070;2022-07-22T14:57:01;3.58;;;2.40;;
22026;SDS011;11177;50.966;10.070;2022-07-22T14:59:28;3.45;;;2.45;;
22026;SDS011;11177;50.966;10.070;2022-07-22T15:01:56;2.72;;;2.53;;
22026;SDS011;11177;50.966;10.070;2022-07-22T15:04:23;2.50;;;2.30;;
22026;SDS011;11177;50.966;10.070;2022-07-22T15:06:50;3.97;;;2.35;;
22026;SDS011;11177;50.966;10.070;2022-07-22T15:09:17;4.00;;;2.50;;
22026;SDS011;11177;50.966;10.070;2022-07-22T15:11:44;2.58;;;2.33;;